Time;durP1;ratioP1;P1;durP2;ratioP2;P2;SDS_P1;SDS_P2;PMS_P1;PMS_P2;Temp;Humidity;BMP_temperature;BMP_pressure;BME280_temperature;BME280_humidity;BME280_pressure;Samples;Min_cycle;Max_cycle;Signal;HPM_P1;HPM_P2
2022/10/31 00:00:46;;;;;;;11.17;10.00;;;;;;;11.23;100.00;99917.53;6009501;23;20202;-82
2022/10/31 00:03:14;;;;;;;11.47;9.53;;;;;;;11.19;100.00;99910.13;6010106;23;20253;-84
2022/10/31 00:05:42;;;;;;;9.70;8.70;;;;;;;11.19;100.00;99912.81;6008412;23;20207;-83
2022/10/31 00:08:09;;;;;;;9.13;8.23;;;;;;;11.26;100.00;99916.25;6009482;23;20211;-82
2022/10/31 00:10:40;;;;;;;9.97;8.50;;;;;;;11.13;100.00;99911.81;6009668;23;20219;-82
2022/10/31 00:13:07;;;;;;;8.73;7.87;;;;;;;11.12;100.00;99914.69;5984546;23;20233;-83
2022/10/31 00:15:35;;;;;;;11.33;9.73;;;;;;;11.18;100.00;99922.72;6019523;23;20216;-83
2022/10/31 00:18:03;;;;;;;12.67;10.57;;;;;;;11.11;100.00;99908.50;6009595;23;20218;-83
2022/10/31 00:20:30;;;;;;;14.60;10.77;;;;;;;11.12;100.00;99914.69;6009510;23;20204;-82
2022/10/31 00:23:00;;;;;;;11.60;10.50;;;;;;;11.07;100.00;99919.88;6010306;23;20212;-82
2022/10/31 00:25:28;;;;;;;12.60;11.30;;;;;;;11.02;100.00;99916.00;6009821;23;20208;-84
2022/10/31 00:27:55;;;;;;;12.30;11.10;;;;;;;10.98;100.00;99912.09;6009572;23;20210;-84
2022/10/31 00:30:22;;;;;;;12.33;11.13;;;;;;;10.98;100.00;99920.16;6009056;23;20591;-84
2022/10/31 00:32:49;;;;;;;12.13;10.97;;;;;;;11.01;100.00;99918.91;6009711;23;20680;-84
2022/10/31 00:35:16;;;;;;;12.20;11.00;;;;;;;11.03;100.00;99916.81;5984775;23;20229;-82
2022/10/31 00:37:44;;;;;;;12.40;11.07;;;;;;;11.07;100.00;99923.41;6009733;23;20267;-83
2022/10/31 00:40:11;;;;;;;12.37;11.07;;;;;;;11.03;100.00;99922.19;6008951;23;20218;-82
2022/10/31 00:42:39;;;;;;;12.20;10.90;;;;;;;10.99;100.00;99924.47;5984722;23;20214;-83
2022/10/31 00:45:06;;;;;;;11.73;10.50;;;;;;;11.04;100.00;99924.66;5962037;23;20210;-85
2022/10/31 00:47:33;;;;;;;12.30;10.83;;;;;;;10.96;100.00;99916.84;6009855;23;20231;-85
2022/10/31 00:49:59;;;;;;;11.67;10.57;;;;;;;10.95;100.00;99920.59;5984681;23;20228;-83
2022/10/31 00:52:26;;;;;;;11.33;10.13;;;;;;;11.01;100.00;99930.44;6009104;23;20206;-83
2022/10/31 00:54:52;;;;;;;10.70;9.70;;;;;;;10.97;100.00;99915.00;6008114;23;20206;-82
2022/10/31 00:57:19;;;;;;;10.27;9.10;;;;;;;10.92;100.00;99931.72;6009534;23;20215;-83
2022/10/31 00:59:46;;;;;;;10.40;9.17;;;;;;;10.88;100.00;99922.47;5984588;23;20241;-83
2022/10/31 01:02:12;;;;;;;10.17;9.27;;;;;;;10.92;100.00;99925.53;6031136;23;20580;-83
2022/10/31 01:04:40;;;;;;;10.57;9.57;;;;;;;10.85;100.00;99917.56;5984478;23;20350;-82
2022/10/31 01:07:06;;;;;;;10.40;9.30;;;;;;;10.85;100.00;99927.44;5985016;23;20289;-82
2022/10/31 01:09:33;;;;;;;11.07;9.97;;;;;;;10.83;100.00;99930.34;6009530;23;20211;-82
2022/10/31 01:12:00;;;;;;;10.50;9.50;;;;;;;10.84;100.00;99926.63;6009369;23;20271;-82
2022/10/31 01:14:26;;;;;;;10.80;9.27;;;;;;;10.84;100.00;99926.63;6009084;23;20218;-84
2022/10/31 01:16:56;;;;;;;10.50;9.40;;;;;;;10.84;100.00;99929.31;6031591;23;20592;-83
2022/10/31 01:19:22;;;;;;;10.97;9.77;;;;;;;10.87;100.00;99928.06;6009497;23;20226;-83
2022/10/31 01:21:49;;;;;;;10.80;9.73;;;;;;;10.92;100.00;99925.53;6009150;23;20860;-83
2022/10/31 01:24:15;;;;;;;10.57;9.57;;;;;;;10.93;100.00;99921.81;6008994;23;20599;-83
2022/10/31 01:26:42;;;;;;;10.77;9.67;;;;;;;10.82;100.00;99920.66;5983893;23;20289;-82
2022/10/31 01:29:08;;;;;;;10.33;9.27;;;;;;;10.82;100.00;99923.34;6009321;23;20214;-83
2022/10/31 01:31:37;;;;;;;11.47;10.27;;;;;;;10.85;100.00;99914.88;6009174;23;20688;-82
2022/10/31 01:34:04;;;;;;;10.97;9.90;;;;;;;10.86;100.00;99923.72;5984207;23;20236;-83
2022/10/31 01:36:33;;;;;;;10.70;9.60;;;;;;;10.92;100.00;99921.00;5984639;23;20210;-85
2022/10/31 01:39:09;;;;;;;10.60;9.47;;;;;;;10.90;100.00;99914.22;6007814;23;20226;-83
2022/10/31 01:41:42;;;;;;;10.70;9.17;;;;;;;10.91;100.00;99919.38;5984463;23;20220;-83
2022/10/31 01:44:15;;;;;;;11.10;9.90;;;;;;;10.83;100.00;99916.09;5983885;23;20266;-83
2022/10/31 01:46:51;;;;;;;11.53;9.70;;;;;;;10.67;100.00;99909.41;6009529;23;20268;-84
2022/10/31 01:49:19;;;;;;;14.17;9.63;;;;;;;10.56;100.00;99910.88;6009546;23;20217;-84
2022/10/31 01:51:49;;;;;;;10.90;9.80;;;;;;;10.53;100.00;99911.31;6009021;23;20214;-82
2022/10/31 01:54:18;;;;;;;10.27;9.27;;;;;;;10.57;100.00;99917.88;5984222;23;20233;-83
2022/10/31 01:56:51;;;;;;;11.57;10.33;;;;;;;10.60;100.00;99917.44;5984499;23;20211;-83
2022/10/31 01:59:20;;;;;;;15.70;10.43;;;;;;;10.64;100.00;99917.03;5982938;23;20248;-83
2022/10/31 02:01:47;;;;;;;11.33;10.23;;;;;;;10.60;100.00;99911.28;6008732;23;20210;-83
2022/10/31 02:04:15;;;;;;;11.20;9.80;;;;;;;10.59;100.00;99905.09;5983901;23;20610;-83
2022/10/31 02:06:46;;;;;;;10.97;9.77;;;;;;;10.68;100.00;99904.88;6009791;23;20242;-83
2022/10/31 02:09:14;;;;;;;10.67;9.57;;;;;;;10.70;100.00;99910.81;5984707;23;20225;-83
2022/10/31 02:11:41;;;;;;;10.37;9.37;;;;;;;10.71;100.00;99907.09;5984190;23;20559;-83
2022/10/31 02:14:10;;;;;;;10.00;8.77;;;;;;;10.69;100.00;99910.00;6008795;23;20211;-83
2022/10/31 02:16:37;;;;;;;9.57;8.67;;;;;;;10.69;100.00;99917.19;5984324;23;20212;-82
2022/10/31 02:19:07;;;;;;;10.07;9.07;;;;;;;10.64;100.00;99909.00;6009389;23;20211;-83
2022/10/31 02:21:51;;;;;;;10.63;9.53;;;;;;;10.66;100.00;99907.75;5961038;23;20215;-83
2022/10/31 02:24:59;;;;;;;10.63;9.53;;;;;;;10.74;100.00;99910.16;5985366;23;20232;-82
2022/10/31 02:28:09;;;;;;;9.40;8.43;;;;;;;10.71;100.00;99912.47;5932857;23;20218;-83
2022/10/31 02:30:46;;;;;;;9.63;8.53;;;;;;;10.73;100.00;99915.78;5985513;23;20206;-82
2022/10/31 02:33:36;;;;;;;10.33;8.33;;;;;;;10.69;100.00;99910.00;6009267;23;20218;-82
2022/10/31 02:36:03;;;;;;;8.70;7.80;;;;;;;10.73;100.00;99911.19;5985797;23;20555;-83
2022/10/31 02:38:47;;;;;;;10.07;8.87;;;;;;;10.69;100.00;99909.16;5986192;23;20682;-83
2022/10/31 02:41:46;;;;;;;10.03;8.93;;;;;;;10.73;100.00;99911.19;6008736;23;20222;-83
2022/10/31 02:44:17;;;;;;;9.10;8.20;;;;;;;10.70;100.00;99910.81;5986017;23;20210;-83
2022/10/31 02:46:55;;;;;;;9.90;8.13;;;;;;;10.66;100.00;99910.44;5986155;23;20214;-83
2022/10/31 02:49:28;;;;;;;9.33;8.33;;;;;;;10.65;100.00;99914.13;5986307;23;20244;-83
2022/10/31 02:51:55;;;;;;;8.97;8.07;;;;;;;10.63;100.00;99915.41;5984466;23;20220;-84
2022/10/31 02:54:23;;;;;;;8.90;8.00;;;;;;;10.60;100.00;99911.28;6010444;23;20312;-82
2022/10/31 02:56:57;;;;;;;9.50;8.50;;;;;;;10.64;100.00;99914.38;6010810;23;20716;-83
2022/10/31 02:59:24;;;;;;;9.57;8.57;;;;;;;10.65;100.00;99919.50;5986365;23;20690;-83
2022/10/31 03:02:00;;;;;;;9.27;8.37;;;;;;;10.66;100.00;99923.81;5962356;23;20214;-82
2022/10/31 03:04:29;;;;;;;9.00;8.20;;;;;;;10.65;100.00;99919.50;5962803;23;20209;-83
2022/10/31 03:07:25;;;;;;;8.30;7.50;;;;;;;10.68;100.00;99927.13;5985306;23;20679;-83
2022/10/31 03:10:08;;;;;;;9.30;8.40;;;;;;;10.70;100.00;99918.84;5985663;23;20221;-82
2022/10/31 03:12:36;;;;;;;9.43;8.43;;;;;;;10.74;100.00;99920.06;5986214;23;20212;-82
2022/10/31 03:15:26;;;;;;;9.20;8.27;;;;;;;10.68;100.00;99912.91;5986102;23;21267;-83
2022/10/31 03:18:02;;;;;;;9.40;8.37;;;;;;;10.73;100.00;99921.91;5985137;23;20228;-83
2022/10/31 03:20:42;;;;;;;9.30;8.23;;;;;;;10.79;100.00;99920.25;5983892;23;20697;-83
2022/10/31 03:23:13;;;;;;;9.90;8.90;;;;;;;10.75;100.00;99921.72;5985864;23;20234;-83
2022/10/31 03:25:41;;;;;;;9.93;8.93;;;;;;;10.75;100.00;99927.06;5985868;23;20602;-83
2022/10/31 03:28:11;;;;;;;10.10;8.90;;;;;;;10.74;100.00;99936.16;5985176;23;20218;-82
2022/10/31 03:30:41;;;;;;;10.80;9.03;;;;;;;10.74;100.00;99920.88;5962625;23;20531;-84
2022/10/31 03:33:11;;;;;;;10.07;9.07;;;;;;;10.72;100.00;99927.50;5985194;23;20260;-82
2022/10/31 03:35:41;;;;;;;9.87;8.43;;;;;;;10.75;100.00;99927.91;6008172;23;20214;-83
2022/10/31 03:38:08;;;;;;;9.43;8.50;;;;;;;10.73;100.00;99932.63;5983713;23;20695;-84
2022/10/31 03:40:37;;;;;;;9.57;8.57;;;;;;;10.74;100.00;99930.78;6008531;23;20213;-82
2022/10/31 03:43:08;;;;;;;10.40;8.77;;;;;;;10.73;100.00;99923.81;5985348;23;20221;-83
2022/10/31 03:45:40;;;;;;;10.27;8.70;;;;;;;10.74;100.00;99931.63;5986055;23;20215;-84
2022/10/31 03:48:07;;;;;;;10.63;8.70;;;;;;;10.78;100.00;99934.72;5984796;23;20591;-82
2022/10/31 03:50:40;;;;;;;9.20;8.30;;;;;;;10.79;100.00;99936.34;6009028;23;20212;-82
2022/10/31 03:53:14;;;;;;;9.87;8.87;;;;;;;10.76;100.00;99926.03;6010206;23;20214;-82
2022/10/31 03:55:52;;;;;;;9.20;8.30;;;;;;;10.76;100.00;99928.72;5985419;23;20215;-83
2022/10/31 03:58:23;;;;;;;9.40;8.37;;;;;;;10.74;100.00;99920.88;5984529;23;20258;-83
2022/10/31 04:00:54;;;;;;;9.60;8.60;;;;;;;10.78;100.00;99929.34;6010129;23;20245;-84
2022/10/31 04:03:33;;;;;;;10.47;9.23;;;;;;;10.79;100.00;99929.13;6008551;23;20672;-82
2022/10/31 04:06:05;;;;;;;10.20;9.20;;;;;;;10.78;100.00;99927.47;5984964;23;20674;-84
2022/10/31 04:08:43;;;;;;;10.73;9.53;;;;;;;10.80;100.00;99928.09;5962239;23;20649;-82
2022/10/31 04:11:15;;;;;;;9.93;8.43;;;;;;;10.78;100.00;99924.00;5962792;23;20660;-82
2022/10/31 04:13:46;;;;;;;10.43;9.03;;;;;;;10.82;100.00;99927.88;6009469;23;20211;-82
2022/10/31 04:16:21;;;;;;;9.80;8.80;;;;;;;10.80;100.00;99927.25;5985566;23;20207;-82
2022/10/31 04:18:47;;;;;;;11.60;9.30;;;;;;;10.82;100.00;99936.75;6010216;23;20203;-83
2022/10/31 04:21:16;;;;;;;10.53;8.83;;;;;;;10.83;100.00;99929.50;5984606;23;20521;-84
2022/10/31 04:23:43;;;;;;;10.23;8.97;;;;;;;10.83;100.00;99932.19;6009704;23;20215;-82
2022/10/31 04:26:17;;;;;;;10.20;9.10;;;;;;;10.84;100.00;99934.66;5984475;23;20207;-82
2022/10/31 04:28:43;;;;;;;10.07;8.93;;;;;;;10.86;100.00;99937.97;6009775;23;20211;-82
2022/10/31 04:31:12;;;;;;;11.83;9.33;;;;;;;10.91;100.00;99934.63;6009814;23;20218;-82
2022/10/31 04:33:39;;;;;;;9.53;8.53;;;;;;;10.87;100.00;99928.88;6008045;23;20669;-82
2022/10/31 04:36:06;;;;;;;9.30;8.10;;;;;;;10.84;100.00;99941.88;5984638;23;20218;-83
2022/10/31 04:38:33;;;;;;;9.30;8.43;;;;;;;10.85;100.00;99938.16;6009600;23;20208;-83
2022/10/31 04:41:03;;;;;;;9.07;7.87;;;;;;;10.85;100.00;99933.63;5984488;23;20218;-83
2022/10/31 04:43:46;;;;;;;8.80;7.97;;;;;;;10.89;100.00;99937.53;5984713;23;20213;-82
2022/10/31 04:46:13;;;;;;;8.77;7.90;;;;;;;10.84;100.00;99934.66;6031253;23;20214;-83
2022/10/31 04:48:40;;;;;;;6.70;6.10;;;;;;;10.86;100.00;99937.13;6009609;23;20270;-82
2022/10/31 04:51:06;;;;;;;6.20;5.60;;;;;;;10.82;100.00;99939.44;6031716;23;20214;-83
2022/10/31 04:53:33;;;;;;;6.00;5.07;;;;;;;10.86;100.00;99939.81;6008102;23;20230;-82
2022/10/31 04:56:32;;;;;;;5.33;4.53;;;;;;;10.79;100.00;99930.97;6007594;23;20211;-82
2022/10/31 04:59:01;;;;;;;5.27;4.43;;;;;;;10.71;100.00;99937.41;6009828;23;20217;-82
2022/10/31 05:01:38;;;;;;;5.87;4.80;;;;;;;10.72;100.00;99938.22;5984834;23;20217;-83
2022/10/31 05:04:05;;;;;;;4.87;4.47;;;;;;;10.67;100.00;99941.56;5984005;23;20262;-82
2022/10/31 05:06:32;;;;;;;6.90;4.43;;;;;;;10.69;100.00;99938.63;6008051;23;20213;-82
2022/10/31 05:08:58;;;;;;;5.37;4.83;;;;;;;10.69;100.00;99944.81;5984627;23;20218;-83
2022/10/31 05:11:25;;;;;;;5.63;5.10;;;;;;;10.63;100.00;99939.50;6031576;23;20684;-83
2022/10/31 05:13:54;;;;;;;5.43;4.83;;;;;;;10.63;100.00;99951.06;6031234;23;20216;-83
2022/10/31 05:16:39;;;;;;;4.80;4.30;;;;;;;10.61;100.00;99939.72;6009127;23;20656;-83
2022/10/31 05:19:29;;;;;;;6.20;5.37;;;;;;;10.64;100.00;99943.84;5971104;23;20688;-81
2022/10/31 05:22:31;;;;;;;5.67;4.90;;;;;;;10.60;100.00;99948.78;6008743;23;20209;-82
2022/10/31 05:24:57;;;;;;;5.40;4.90;;;;;;;10.57;100.00;99947.34;6031525;23;20214;-82
2022/10/31 05:27:24;;;;;;;5.40;4.90;;;;;;;10.53;100.00;99943.47;6007877;23;20208;-83
2022/10/31 05:29:50;;;;;;;6.07;5.03;;;;;;;10.51;100.00;99942.00;5984812;23;20271;-83
2022/10/31 05:32:17;;;;;;;6.17;4.83;;;;;;;10.50;100.00;99945.72;5983943;23;20220;-84
2022/10/31 05:35:05;;;;;;;6.47;4.97;;;;;;;10.54;100.00;99947.75;6008848;23;20262;-83
2022/10/31 05:37:50;;;;;;;5.90;5.20;;;;;;;10.48;100.00;99950.47;6009479;23;20218;-83
2022/10/31 05:40:18;;;;;;;6.17;5.10;;;;;;;10.46;100.00;99955.22;6008006;23;20251;-83
2022/10/31 05:42:45;;;;;;;6.03;5.43;;;;;;;10.43;100.00;99963.69;5979183;23;20293;-83
2022/10/31 05:45:14;;;;;;;7.20;6.00;;;;;;;10.44;100.00;99962.66;5998990;23;20685;-83
2022/10/31 05:47:55;;;;;;;6.10;5.50;;;;;;;10.44;100.00;99960.81;5963085;23;20601;-83
2022/10/31 05:50:41;;;;;;;6.50;5.70;;;;;;;10.44;100.00;99959.97;5986939;23;20213;-82
2022/10/31 05:53:09;;;;;;;6.33;5.73;;;;;;;10.43;100.00;99961.81;5984096;23;20559;-82
2022/10/31 05:55:37;;;;;;;7.03;5.70;;;;;;;10.43;100.00;99966.34;6009407;23;20294;-83
2022/10/31 05:58:11;;;;;;;10.07;5.93;;;;;;;10.44;100.00;99958.13;6006421;23;20671;-83
2022/10/31 06:00:40;;;;;;;9.03;5.97;;;;;;;10.52;100.00;99965.09;6008166;23;20216;-82
2022/10/31 06:03:09;;;;;;;7.53;5.73;;;;;;;10.46;100.00;99969.44;5984838;23;20200;-83
2022/10/31 06:05:41;;;;;;;7.60;5.90;;;;;;;10.47;100.00;99968.41;6009278;23;20211;-82
2022/10/31 06:08:08;;;;;;;6.33;5.73;;;;;;;10.48;100.00;99962.03;6008334;23;20271;-83
2022/10/31 06:10:35;;;;;;;6.73;6.13;;;;;;;10.56;100.00;99975.19;6031570;23;20210;-82
2022/10/31 06:13:01;;;;;;;6.60;5.90;;;;;;;10.59;100.00;99965.91;5984388;23;20753;-82
2022/10/31 06:15:34;;;;;;;7.47;5.67;;;;;;;10.67;100.00;99975.56;5983861;23;20587;-83
2022/10/31 06:18:05;;;;;;;7.43;6.20;;;;;;;10.69;100.00;99990.38;6008423;23;20262;-80
2022/10/31 06:20:43;;;;;;;8.07;5.70;;;;;;;10.72;100.00;99981.13;5986711;23;20214;-82
2022/10/31 06:23:10;;;;;;;6.20;5.60;;;;;;;10.80;100.00;99983.53;6007204;23;20272;-83
2022/10/31 06:25:39;;;;;;;6.40;5.57;;;;;;;10.88;100.00;99988.66;6007673;23;20672;-83
2022/10/31 06:28:05;;;;;;;7.30;6.00;;;;;;;10.88;100.00;99977.94;6008200;23;20246;-82
2022/10/31 06:30:45;;;;;;;6.10;5.50;;;;;;;10.94;100.00;99985.13;6007481;23;20218;-84
2022/10/31 06:33:12;;;;;;;9.17;5.37;;;;;;;10.98;100.00;99984.50;6007389;23;20756;-84
2022/10/31 06:35:47;;;;;;;6.37;5.73;;;;;;;11.07;100.00;99985.06;6007417;23;20270;-85
2022/10/31 06:38:15;;;;;;;6.17;5.57;;;;;;;11.12;100.00;99987.94;6006656;23;20212;-83
2022/10/31 06:40:41;;;;;;;8.50;5.43;;;;;;;11.10;100.00;99990.03;6009157;23;20233;-83
2022/10/31 06:43:34;;;;;;;6.00;5.40;;;;;;;11.19;100.00;99987.91;6003325;23;20235;-83
2022/10/31 06:46:24;;;;;;;7.00;6.30;;;;;;;11.24;100.00;99994.28;5936979;23;20588;-83
2022/10/31 06:49:04;;;;;;;5.77;5.13;;;;;;;11.27;100.00;100001.88;6031512;23;20219;-83
2022/10/31 06:51:41;;;;;;;6.20;5.40;;;;;;;11.35;100.00;99998.94;5984050;23;20221;-83
2022/10/31 06:54:08;;;;;;;5.53;5.00;;;;;;;11.40;100.00;100003.66;6008171;23;20250;-83
2022/10/31 06:56:35;;;;;;;5.93;5.43;;;;;;;11.49;100.00;100002.38;6008789;23;20683;-82
2022/10/31 06:59:03;;;;;;;6.40;5.80;;;;;;;11.59;100.00;100008.06;5983968;23;20216;-84
2022/10/31 07:01:50;;;;;;;6.10;5.50;;;;;;;11.69;100.00;100005.75;5964501;23;20246;-84
2022/10/31 07:04:17;;;;;;;7.67;5.40;;;;;;;11.77;100.00;100013.56;5983327;23;20221;-83
2022/10/31 07:06:43;;;;;;;6.30;5.50;;;;;;;11.80;100.00;100002.38;5960243;23;20242;-83
2022/10/31 07:09:17;;;;;;;6.00;5.40;;;;;;;11.88;100.00;100004.81;6007825;23;20222;-83
2022/10/31 07:11:45;;;;;;;5.00;4.50;;;;;;;11.97;100.00;100012.56;5985063;23;20225;-83
2022/10/31 07:14:12;;;;;;;5.20;4.70;;;;;;;11.90;100.00;100007.25;6031996;23;20220;-87
2022/10/31 07:16:38;;;;;;;4.73;4.33;;;;;;;11.91;100.00;100015.09;5985677;23;20553;-86
2022/10/31 07:19:06;;;;;;;4.70;4.30;;;;;;;11.93;100.00;100014.88;5985621;23;20335;-88
2022/10/31 07:21:32;;;;;;;5.10;4.40;;;;;;;11.94;100.00;100021.09;6033174;23;20215;-90
2022/10/31 07:24:00;;;;;;;5.73;4.77;;;;;;;12.01;100.00;100019.16;5985579;23;20207;-90
2022/10/31 07:26:56;;;;;;;5.50;5.00;;;;;;;12.02;100.00;100016.25;5881195;23;20215;-90
2022/10/31 07:29:23;;;;;;;6.73;5.20;;;;;;;12.04;100.00;100024.09;6013024;23;20282;-89
2022/10/31 07:31:50;;;;;;;4.90;4.50;;;;;;;12.04;100.00;100018.72;5993511;23;20561;-90
2022/10/31 07:34:23;;;;;;;5.43;4.57;;;;;;;12.03;100.00;100017.09;6009622;23;20653;-90
2022/10/31 07:37:16;;;;;;;5.20;4.70;;;;;;;11.99;100.00;100015.88;5992379;23;20298;-90
2022/10/31 07:39:43;;;;;;;4.47;4.07;;;;;;;11.93;100.00;100022.94;5995028;23;20216;-88
2022/10/31 07:42:10;;;;;;;6.70;5.10;;;;;;;12.01;100.00;100024.53;5985669;23;20226;-90
2022/10/31 07:44:41;;;;;;;5.40;4.90;;;;;;;12.11;100.00;100028.38;6009476;23;20229;-88
2022/10/31 07:47:27;;;;;;;5.37;4.87;;;;;;;12.19;100.00;100024.56;6010715;23;20223;-89
2022/10/31 07:50:15;;;;;;;5.20;4.70;;;;;;;12.30;100.00;100021.16;5999129;23;20612;-90
2022/10/31 07:53:09;;;;;;;5.27;4.83;;;;;;;12.33;100.00;100026.91;6006653;23;20612;-90
2022/10/31 07:55:56;;;;;;;5.77;5.27;;;;;;;12.41;100.00;100023.13;6010455;23;20290;-90
2022/10/31 07:58:28;;;;;;;6.57;5.00;;;;;;;12.50;100.00;100021.81;5963563;23;20287;-88
2022/10/31 08:00:57;;;;;;;5.87;5.37;;;;;;;12.64;100.00;100014.44;5986301;23;20219;-89
2022/10/31 08:03:33;;;;;;;5.93;5.43;;;;;;;12.74;100.00;100022.75;5988349;23;20275;-90
2022/10/31 08:06:18;;;;;;;5.50;4.80;;;;;;;12.78;100.00;100022.09;6010922;23;20272;-91
2022/10/31 08:09:00;;;;;;;4.77;4.27;;;;;;;12.87;100.00;100014.56;6014519;23;20242;-90
2022/10/31 08:11:26;;;;;;;5.90;4.53;;;;;;;12.92;100.00;100022.78;5986444;23;20222;-90
2022/10/31 08:13:53;;;;;;;5.60;5.10;;;;;;;12.94;100.00;100014.47;5986311;23;20212;-91
2022/10/31 08:16:20;;;;;;;4.93;4.50;;;;;;;13.08;100.00;100015.94;5962974;23;20215;-91
2022/10/31 08:19:00;;;;;;;5.60;5.10;;;;;;;13.15;100.00;100012.19;5986643;23;20293;-90
2022/10/31 08:21:28;;;;;;;5.50;4.87;;;;;;;13.26;100.00;100012.44;6032494;23;20259;-87
2022/10/31 08:23:56;;;;;;;5.57;5.00;;;;;;;13.13;100.00;100013.44;5985632;23;20283;-89
2022/10/31 08:26:23;;;;;;;5.23;4.73;;;;;;;13.17;100.00;100010.06;6010125;23;20219;-89
2022/10/31 08:28:54;;;;;;;5.80;4.87;;;;;;;13.20;100.00;100006.13;5986337;23;20219;-88
2022/10/31 08:31:22;;;;;;;5.20;4.50;;;;;;;13.15;100.00;100003.28;5963677;23;20673;-88
2022/10/31 08:33:49;;;;;;;5.17;4.73;;;;;;;13.18;100.00;100009.03;6010832;23;20220;-88
2022/10/31 08:36:16;;;;;;;5.23;4.73;;;;;;;13.09;100.00;100004.16;5985623;23;20233;-88
2022/10/31 08:38:57;;;;;;;4.97;4.53;;;;;;;13.16;100.00;100005.72;5965431;23;20218;-89
2022/10/31 08:41:29;;;;;;;4.93;4.47;;;;;;;13.17;100.00;100009.25;5963774;23;20217;-89
2022/10/31 08:43:57;;;;;;;4.83;4.43;;;;;;;13.22;100.00;100004.00;6033340;23;20216;-90
2022/10/31 08:46:23;;;;;;;5.00;4.60;;;;;;;13.33;100.00;100002.41;6010306;23;20611;-89
2022/10/31 08:48:50;;;;;;;5.13;4.60;;;;;;;13.39;100.00;100002.31;5986536;23;20204;-89
2022/10/31 08:51:18;;;;;;;4.70;4.30;;;;;;;13.43;100.00;100006.22;6033394;23;20220;-90
2022/10/31 08:53:47;;;;;;;4.73;4.33;;;;;;;13.33;100.00;100005.94;6009867;23;20218;-88
2022/10/31 08:56:34;;;;;;;4.70;4.30;;;;;;;13.40;100.00;100012.03;5975659;23;20636;-89
2022/10/31 08:59:04;;;;;;;5.10;4.70;;;;;;;13.37;100.00;100000.91;5963591;23;20214;-89
2022/10/31 09:01:52;;;;;;;5.03;4.63;;;;;;;13.20;100.00;100001.53;5964945;23;20213;-89
2022/10/31 09:04:19;;;;;;;5.17;4.60;;;;;;;13.13;100.00;99998.13;5961218;23;20316;-88
2022/10/31 09:06:46;;;;;;;5.07;4.67;;;;;;;13.13;100.00;99998.13;6032696;23;20218;-90
2022/10/31 09:09:33;;;;;;;5.07;4.53;;;;;;;13.06;100.00;99999.25;6009315;23;20227;-88
2022/10/31 09:12:00;;;;;;;5.67;4.53;;;;;;;13.04;100.00;100004.00;6008940;23;20220;-88
2022/10/31 09:14:45;;;;;;;4.83;4.43;;;;;;;13.04;100.00;100001.31;6010090;23;20216;-87
2022/10/31 09:17:30;;;;;;;5.23;4.80;;;;;;;13.09;100.00;100004.16;6010463;23;20217;-88
2022/10/31 09:20:15;;;;;;;5.40;4.90;;;;;;;13.16;100.00;100011.09;5988968;23;20221;-90
2022/10/31 09:22:42;;;;;;;5.00;4.60;;;;;;;13.21;100.00;100011.25;5963305;23;20205;-90
2022/10/31 09:25:09;;;;;;;5.83;5.23;;;;;;;13.34;100.00;100006.75;6008139;23;20213;-88
2022/10/31 09:27:38;;;;;;;5.30;4.90;;;;;;;13.41;100.00;100010.16;5983968;23;20706;-90
2022/10/31 09:30:06;;;;;;;5.40;4.97;;;;;;;13.51;100.00;100007.75;6008816;23;20222;-90
2022/10/31 09:32:33;;;;;;;5.90;5.07;;;;;;;13.56;100.00;100010.56;5962196;23;20213;-87
2022/10/31 09:35:00;;;;;;;5.97;5.47;;;;;;;13.53;100.00;100008.34;6009774;23;20239;-90
2022/10/31 09:37:27;;;;;;;5.80;5.30;;;;;;;13.48;100.00;100005.53;5986773;23;20232;-90
2022/10/31 09:39:54;;;;;;;5.67;5.17;;;;;;;13.40;100.00;100008.50;5986762;23;20217;-91
2022/10/31 09:42:47;;;;;;;6.27;5.10;;;;;;;13.29;100.00;100010.13;5964265;23;20205;-90
2022/10/31 09:45:46;;;;;;;5.93;5.37;;;;;;;13.22;100.00;100006.69;5985227;23;20302;-90
2022/10/31 09:48:58;;;;;;;5.93;5.37;;;;;;;13.29;100.00;100001.25;5985334;23;20198;-89
2022/10/31 09:51:43;;;;;;;6.10;5.60;;;;;;;13.45;100.00;100004.09;5985861;23;20258;-89
2022/10/31 09:54:34;;;;;;;6.37;5.50;;;;;;;13.52;100.00;99999.44;5945053;23;20212;-91
2022/10/31 09:57:01;;;;;;;6.90;6.20;;;;;;;13.59;100.00;100008.22;5962906;23;20327;-90
2022/10/31 09:59:37;;;;;;;6.57;6.00;;;;;;;13.57;100.00;100004.97;5985901;23;20285;-91
2022/10/31 10:02:19;;;;;;;6.50;5.90;;;;;;;13.61;100.00;100008.00;5939379;23;20219;-90
2022/10/31 10:04:58;;;;;;;6.70;6.10;;;;;;;13.65;100.00;100006.50;5963187;23;20241;-91
2022/10/31 10:07:44;;;;;;;8.03;7.23;;;;;;;13.66;100.00;100003.59;5985225;23;20220;-90
2022/10/31 10:10:27;;;;;;;7.87;7.17;;;;;;;13.72;100.00;99999.13;5986283;23;20216;-90
2022/10/31 10:13:23;;;;;;;8.47;7.77;;;;;;;13.68;100.00;100009.53;5970288;23;20214;-90
2022/10/31 10:15:56;;;;;;;8.23;7.53;;;;;;;13.73;100.00;100003.47;5962694;23;20240;-88
2022/10/31 10:18:50;;;;;;;8.03;7.27;;;;;;;13.78;100.00;100003.59;6008405;23;20262;-91
2022/10/31 10:21:37;;;;;;;8.90;8.10;;;;;;;13.86;100.00;99997.88;5963299;23;20219;-90
2022/10/31 10:24:25;;;;;;;8.77;7.97;;;;;;;13.88;100.00;100003.84;5962426;23;20217;-90
2022/10/31 10:27:29;;;;;;;11.30;10.30;;;;;;;13.85;100.00;99998.94;5962638;23;20263;-89
2022/10/31 10:30:16;;;;;;;9.43;8.50;;;;;;;13.72;100.00;99988.34;5962731;23;20300;-90
2022/10/31 10:32:46;;;;;;;8.90;7.90;;;;;;;13.78;100.00;99992.81;6032167;23;20210;-91
2022/10/31 10:35:22;;;;;;;10.30;9.20;;;;;;;13.74;100.00;99994.34;6010787;23;20443;-91
2022/10/31 10:37:52;;;;;;;10.60;9.60;;;;;;;13.70;100.00;99987.78;5969167;23;20225;-90
2022/10/31 10:40:23;;;;;;;9.80;8.90;;;;;;;13.72;100.00;99987.56;5962979;23;20210;-90
2022/10/31 10:48:43;;;;;;;9.80;8.90;;;;;;;13.60;100.00;99990.22;5992049;23;20674;-91
2022/10/31 10:51:21;;;;;;;13.53;12.27;;;;;;;13.43;100.00;99979.28;5964644;23;20699;-91
2022/10/31 10:54:16;;;;;;;15.80;14.30;;;;;;;13.52;100.00;99986.00;5949152;23;20205;-91
2022/10/31 10:56:58;;;;;;;12.73;11.47;;;;;;;13.47;100.00;99985.03;5987221;23;20295;-90
2022/10/31 10:59:29;;;;;;;10.80;9.90;;;;;;;13.59;100.00;99975.94;5964924;23;20270;-89
2022/10/31 11:01:55;;;;;;;11.77;10.67;;;;;;;13.78;100.00;99975.84;5964526;23;20217;-89
2022/10/31 11:04:40;;;;;;;10.93;9.93;;;;;;;13.64;100.00;99967.97;5986475;23;20213;-90
2022/10/31 11:07:12;;;;;;;11.70;10.63;;;;;;;13.50;100.00;99984.56;5963999;23;20251;-90
2022/10/31 11:09:41;;;;;;;11.57;10.37;;;;;;;13.66;100.00;99978.53;5992698;23;20768;-91
2022/10/31 11:12:10;;;;;;;11.73;10.60;;;;;;;13.67;100.00;99972.06;5967658;23;20215;-90
2022/10/31 11:14:47;;;;;;;12.13;10.93;;;;;;;13.71;100.00;99978.66;5987289;23;20211;-90
2022/10/31 11:17:26;;;;;;;11.90;10.70;;;;;;;13.77;100.00;99977.72;5988708;23;20213;-91
2022/10/31 11:20:07;;;;;;;11.53;10.53;;;;;;;13.86;100.00;99964.72;5970885;23;20212;-90
2022/10/31 11:22:33;;;;;;;11.63;10.43;;;;;;;13.94;100.00;99969.78;5987588;23;20234;-90
2022/10/31 11:25:00;;;;;;;11.07;10.07;;;;;;;14.00;100.00;99968.84;5964338;23;20223;-90
2022/10/31 11:27:29;;;;;;;11.30;10.30;;;;;;;14.07;100.00;99966.84;5964492;23;20288;-89
2022/10/31 11:30:09;;;;;;;11.90;10.80;;;;;;;14.11;100.00;99959.94;5965785;23;20230;-90
2022/10/31 11:32:44;;;;;;;11.47;10.37;;;;;;;14.21;100.00;99956.66;5987947;23;20671;-90
2022/10/31 11:35:12;;;;;;;11.53;10.43;;;;;;;14.20;100.00;99957.72;5964374;23;20206;-91
2022/10/31 11:37:44;;;;;;;11.43;10.43;;;;;;;14.16;100.00;99957.38;5987182;23;20939;-90
2022/10/31 11:40:18;;;;;;;12.37;11.27;;;;;;;14.25;100.00;99953.25;5963754;23;20210;-91
2022/10/31 11:42:45;;;;;;;11.73;10.63;;;;;;;14.24;100.00;99948.91;5964074;23;20213;-88
2022/10/31 11:45:27;;;;;;;12.30;10.97;;;;;;;14.21;100.00;99948.59;5963747;23;20262;-90
2022/10/31 11:47:56;;;;;;;12.27;11.13;;;;;;;14.20;100.00;99941.53;5964164;23;20258;-90
2022/10/31 11:50:36;;;;;;;12.77;11.57;;;;;;;14.10;100.00;99939.44;5987754;23;20289;-90
2022/10/31 11:53:03;;;;;;;13.00;11.70;;;;;;;14.13;100.00;99944.38;5987431;23;20218;-91